Durango, Spain
Current Conditions -  °F | °C
As of 9:30 AM on Sunday 23 Nov 2014 (Local Time) from LEBB Reporting Station
Clear Clear  
Wind Chill: 59°   Ceiling: Unl
Heat Index: 59°   Visibility: 5mi
Dew Point: 57°   Wind: 9mph
Humidity: 94%   Direction: 170°S
Pressure: 29.85"   Gusts: NA
Location:  43.17°N, 2.63°W
Report Text: LEBB 230830Z 17008KT 140V230 8000 NSC 15/14 Q1011 NOSIG
Loading
Personal Weather Stations






























Interactive Weather Map New forecast layout! Learn more

10-Day Weather Forecast

Advertisements
Track Severe Weather on mobile